Pigeon Falls, Wisconsin
Current Conditions -  °F | °C
As of 12:55 PM on Thursday 30 Oct 2014 (Local Time) from KBCK Reporting Station
Overcast Overcast  
Wind Chill: 45°   Ceiling: 5500
Heat Index: 45°   Visibility: 10mi
Dew Point: 35°   Wind: 0mph
Humidity: 68%   Direction: NA
Pressure: 30.07"   Gusts: NA
Location:  44.43°N, 91.21°W
Report Text: KBCK 301755Z AUTO 00000KT 10SM OVC055 07/02 A3007 RMK AO2 T00740018 10074 21011
Loading
Personal Weather Stations






























Interactive Weather Map
Tropical Storm Tracking
New forecast layout! Learn more

10-Day Weather Forecast

Advertisements
Track Severe Weather on mobile